createdAt,value
2019-01-23T00:00:39.906Z,43.53
2019-01-23T00:03:08.293Z,43.67
2019-01-23T00:05:36.556Z,45.70
2019-01-23T00:08:06.111Z,42.50
2019-01-23T00:10:34.480Z,38.80
2019-01-23T00:13:03.587Z,36.80
2019-01-23T00:15:32.209Z,35.13
2019-01-23T00:18:00.491Z,36.80
2019-01-23T00:20:29.560Z,36.17
2019-01-23T00:22:57.885Z,40.53
2019-01-23T00:25:26.187Z,38.53
2019-01-23T00:27:54.457Z,35.53
2019-01-23T00:30:24.352Z,37.20
2019-01-23T00:32:52.660Z,34.80
2019-01-23T00:35:21.011Z,31.80
2019-01-23T00:37:49.285Z,38.53
2019-01-23T00:40:17.582Z,33.43
2019-01-23T00:42:45.848Z,33.77
2019-01-23T00:45:15.651Z,33.80
2019-01-23T00:47:43.950Z,39.40
2019-01-23T00:50:13.668Z,34.60
2019-01-23T00:52:41.935Z,33.57
2019-01-23T00:55:15.984Z,33.90
2019-01-23T00:57:44.437Z,34.20
2019-01-23T01:00:18.796Z,34.57
2019-01-23T01:02:47.106Z,34.13
2019-01-23T01:05:16.014Z,34.47
2019-01-23T01:07:44.297Z,35.13
2019-01-23T01:10:15.046Z,36.03
2019-01-23T01:12:43.308Z,33.47
2019-01-23T01:15:13.544Z,37.23
2019-01-23T01:17:41.650Z,36.23
2019-01-23T01:20:11.968Z,37.23
2019-01-23T01:22:40.243Z,35.10
2019-01-23T01:25:11.008Z,34.97
2019-01-23T01:27:39.272Z,34.70
2019-01-23T01:30:17.658Z,36.03
2019-01-23T01:32:45.996Z,36.27
2019-01-23T01:35:14.272Z,32.40
2019-01-23T01:37:42.586Z,33.87
2019-01-23T01:40:13.306Z,31.33
2019-01-23T01:42:41.588Z,34.37
2019-01-23T01:45:11.036Z,35.83
2019-01-23T01:47:39.309Z,38.90
2019-01-23T01:50:14.199Z,37.87
2019-01-23T01:52:42.507Z,34.03
2019-01-23T01:55:10.779Z,33.33
2019-01-23T01:57:39.063Z,33.63
2019-01-23T02:00:19.888Z,31.83
2019-01-23T02:02:48.169Z,34.33
2019-01-23T02:05:16.444Z,31.33
2019-01-23T02:07:44.751Z,31.40
2019-01-23T02:10:18.102Z,33.07
2019-01-23T02:12:46.355Z,34.30
2019-01-23T02:15:15.412Z,30.80
2019-01-23T02:17:43.726Z,31.47
2019-01-23T02:20:17.533Z,30.87
2019-01-23T02:22:46.769Z,28.10
2019-01-23T02:25:15.046Z,29.40
2019-01-23T02:27:44.201Z,31.27
2019-01-23T02:30:19.496Z,27.80
2019-01-23T02:32:47.750Z,26.70
2019-01-23T02:35:16.032Z,30.47
2019-01-23T02:37:44.339Z,27.93
2019-01-23T02:40:15.592Z,29.23
2019-01-23T02:42:43.866Z,27.63
2019-01-23T02:45:12.163Z,29.80
2019-01-23T02:47:40.435Z,30.10
2019-01-23T02:50:10.483Z,27.43
2019-01-23T02:52:38.784Z,31.93
2019-01-23T02:55:09.003Z,32.00
2019-01-23T02:57:37.294Z,31.23
2019-01-23T03:00:16.815Z,33.87
2019-01-23T03:02:45.570Z,30.67
2019-01-23T03:05:18.310Z,30.03
2019-01-23T03:10:18.349Z,27.47
2019-01-23T03:15:17.971Z,31.37
2019-01-23T03:17:46.412Z,31.67
2019-01-23T03:20:16.320Z,31.33
2019-01-23T03:22:44.692Z,31.20
2019-01-23T03:25:14.977Z,40.83
2019-01-23T03:27:43.317Z,32.27
2019-01-23T03:30:14.851Z,37.13
2019-01-23T03:32:43.195Z,33.63
2019-01-23T03:35:11.462Z,27.63
2019-01-23T03:37:39.776Z,30.50
2019-01-23T03:40:11.299Z,33.67
2019-01-23T03:42:39.583Z,31.13
2019-01-23T03:45:10.361Z,30.27
2019-01-23T03:47:38.634Z,26.77
2019-01-23T03:50:10.043Z,32.90
2019-01-23T03:52:38.368Z,28.87
2019-01-23T03:55:08.778Z,34.73
2019-01-23T03:57:37.169Z,30.67
2019-01-23T04:00:11.286Z,30.93
2019-01-23T04:02:39.690Z,34.00
2019-01-23T04:05:09.710Z,32.13
2019-01-23T04:07:38.004Z,30.40
2019-01-23T04:10:11.895Z,33.07
2019-01-23T04:12:40.229Z,36.07
2019-01-23T04:15:10.431Z,49.57
2019-01-23T04:17:38.859Z,34.90
2019-01-23T04:20:10.643Z,34.23
2019-01-23T04:22:39.083Z,24.50
2019-01-23T04:25:11.025Z,35.10
2019-01-23T04:27:39.395Z,36.70
2019-01-23T04:30:13.782Z,31.90
2019-01-23T04:32:42.099Z,38.57
2019-01-23T04:35:10.386Z,34.17
2019-01-23T04:37:38.667Z,37.63
2019-01-23T04:40:09.809Z,32.37
2019-01-23T04:42:38.067Z,33.37
2019-01-23T04:45:09.183Z,39.13
2019-01-23T04:47:37.591Z,51.50
2019-01-23T04:50:08.967Z,37.50
2019-01-23T04:52:38.951Z,33.17
2019-01-23T04:55:07.564Z,39.13
2019-01-23T04:57:35.856Z,41.97
2019-01-23T05:00:08.232Z,44.00
2019-01-23T05:02:36.550Z,41.63
2019-01-23T05:05:06.868Z,39.83
2019-01-23T05:07:35.146Z,37.87
2019-01-23T05:10:04.533Z,73.47
2019-01-23T05:12:32.980Z,64.77
2019-01-23T05:15:01.254Z,39.93
2019-01-23T05:17:29.581Z,42.73
2019-01-23T05:19:57.830Z,42.03
2019-01-23T05:22:26.118Z,63.07
2019-01-23T05:24:54.417Z,54.80
2019-01-23T05:27:22.688Z,50.87
2019-01-23T05:29:54.958Z,45.40
2019-01-23T05:32:21.122Z,50.30
2019-01-23T05:34:49.497Z,42.63
2019-01-23T05:37:18.041Z,41.27
2019-01-23T05:39:46.344Z,40.47
2019-01-23T05:42:14.626Z,41.03
2019-01-23T05:44:42.936Z,42.30
2019-01-23T05:47:11.243Z,49.63
2019-01-23T05:49:39.522Z,32.57
2019-01-23T05:52:07.799Z,41.60
2019-01-23T05:54:36.094Z,54.47
2019-01-23T05:57:04.374Z,47.93
2019-01-23T05:59:32.648Z,59.73
2019-01-23T06:02:00.973Z,55.03
2019-01-23T06:04:29.233Z,55.10
2019-01-23T06:06:57.515Z,57.00
2019-01-23T06:09:25.829Z,52.63
2019-01-23T06:11:54.105Z,57.70
2019-01-23T06:14:22.487Z,69.17
2019-01-23T06:16:50.793Z,63.57
2019-01-23T06:19:19.137Z,64.27
2019-01-23T06:21:47.408Z,79.20
2019-01-23T06:24:15.731Z,74.83
2019-01-23T06:26:44.008Z,56.77
2019-01-23T06:29:12.357Z,52.47
2019-01-23T06:31:40.690Z,58.90
2019-01-23T06:34:08.989Z,60.03
2019-01-23T06:36:37.273Z,52.40
2019-01-23T06:39:07.634Z,52.23
2019-01-23T06:41:35.951Z,50.73
2019-01-23T06:44:04.268Z,44.70
2019-01-23T06:46:32.547Z,50.83
2019-01-23T06:49:00.827Z,50.93
2019-01-23T06:51:29.097Z,54.80
2019-01-23T06:53:57.424Z,53.60
2019-01-23T06:56:25.691Z,52.53
2019-01-23T06:58:53.960Z,42.47
2019-01-23T07:01:22.262Z,38.97
2019-01-23T07:03:50.527Z,45.07
2019-01-23T07:06:18.818Z,35.80
2019-01-23T07:08:47.132Z,30.20
2019-01-23T07:11:15.418Z,41.00
2019-01-23T07:13:43.771Z,35.83
2019-01-23T07:16:13.054Z,30.73
2019-01-23T07:18:45.904Z,41.70
2019-01-23T07:21:14.338Z,33.20
2019-01-23T07:23:44.353Z,38.77
2019-01-23T07:26:14.257Z,34.97
2019-01-23T07:28:49.254Z,40.37
2019-01-23T07:31:16.676Z,42.17
2019-01-23T07:33:46.116Z,50.83
2019-01-23T07:36:14.769Z,44.80
2019-01-23T07:38:44.668Z,48.70
2019-01-23T07:41:14.585Z,48.67
2019-01-23T07:43:42.927Z,38.23
2019-01-23T07:46:11.210Z,42.77
2019-01-23T07:48:41.696Z,39.80
2019-01-23T07:51:11.645Z,46.33
2019-01-23T07:53:41.552Z,33.77
2019-01-23T07:56:11.458Z,40.97
2019-01-23T07:58:41.443Z,37.40
2019-01-23T08:01:11.335Z,38.97
2019-01-23T08:03:39.668Z,33.37
2019-01-23T08:06:10.973Z,32.80
2019-01-23T08:08:39.257Z,35.47
2019-01-23T08:11:07.542Z,41.03
2019-01-23T08:13:35.853Z,37.33
2019-01-23T08:16:04.129Z,34.03
2019-01-23T08:18:32.511Z,45.37
2019-01-23T08:21:00.819Z,41.73
2019-01-23T08:23:29.106Z,37.87
2019-01-23T08:25:57.367Z,49.03
2019-01-23T08:28:25.674Z,53.03
2019-01-23T08:30:53.942Z,41.23
2019-01-23T08:33:22.283Z,44.47
2019-01-23T08:35:50.619Z,43.53
2019-01-23T08:38:18.906Z,42.67
2019-01-23T08:40:47.189Z,39.23
2019-01-23T08:43:15.647Z,44.07
2019-01-23T08:45:43.907Z,36.83
2019-01-23T08:48:12.186Z,36.70
2019-01-23T08:50:42.122Z,41.67
2019-01-23T08:53:10.459Z,45.00
2019-01-23T08:55:38.748Z,33.20
2019-01-23T08:58:07.139Z,35.97
2019-01-23T09:00:35.416Z,33.00
2019-01-23T09:03:03.770Z,54.97
2019-01-23T09:05:32.095Z,36.33
2019-01-23T09:08:00.432Z,30.30
2019-01-23T09:10:30.142Z,38.03
2019-01-23T09:12:58.552Z,52.80
2019-01-23T09:15:26.856Z,40.93
2019-01-23T09:17:55.139Z,42.70
2019-01-23T09:20:24.491Z,48.10
2019-01-23T09:22:52.887Z,47.97
2019-01-23T09:25:23.886Z,46.57
2019-01-23T09:27:52.213Z,42.53
2019-01-23T09:30:23.636Z,45.70
2019-01-23T09:33:12.228Z,43.00
2019-01-23T09:35:46.650Z,43.67
2019-01-23T09:38:41.080Z,47.13
2019-01-23T09:41:12.617Z,51.20
2019-01-23T09:44:00.484Z,54.67
2019-01-23T09:46:40.535Z,46.20
2019-01-23T09:49:27.110Z,47.43
2019-01-23T09:52:01.487Z,38.70
2019-01-23T09:54:29.918Z,46.83
2019-01-23T09:56:58.236Z,38.73
2019-01-23T09:59:26.510Z,41.47
2019-01-23T10:01:54.786Z,51.77
2019-01-23T10:04:24.723Z,46.07
2019-01-23T10:06:52.990Z,55.57
2019-01-23T10:09:21.259Z,53.97
2019-01-23T10:11:51.221Z,54.10
2019-01-23T10:14:21.915Z,49.17
2019-01-23T10:16:50.184Z,51.23
2019-01-23T10:19:18.525Z,60.97
2019-01-23T10:21:46.898Z,68.10
2019-01-23T10:24:15.212Z,64.53
2019-01-23T10:26:43.525Z,60.37
2019-01-23T10:29:11.857Z,56.93
2019-01-23T10:31:40.136Z,49.63
2019-01-23T10:34:08.516Z,50.70
2019-01-23T10:36:36.797Z,47.10
2019-01-23T10:39:07.511Z,44.40
2019-01-23T10:41:35.815Z,44.00
2019-01-23T10:44:04.082Z,49.73
2019-01-23T10:46:32.348Z,50.27
2019-01-23T10:49:00.653Z,52.80
2019-01-23T10:51:28.939Z,54.73
2019-01-23T10:53:57.215Z,62.10
2019-01-23T10:56:25.736Z,58.10
2019-01-23T10:58:54.029Z,63.23
2019-01-23T11:01:22.304Z,65.90
2019-01-23T11:03:50.615Z,62.93
2019-01-23T11:06:18.898Z,72.23
2019-01-23T11:08:47.190Z,71.97
2019-01-23T11:11:15.498Z,59.77
2019-01-23T11:13:43.801Z,53.63
2019-01-23T11:16:12.187Z,80.57
2019-01-23T11:18:40.502Z,78.00
2019-01-23T11:21:09.530Z,71.23
2019-01-23T11:23:37.800Z,55.40
2019-01-23T11:26:06.128Z,57.50
2019-01-23T11:28:36.028Z,59.67
2019-01-23T11:31:04.310Z,62.50
2019-01-23T11:33:32.632Z,66.63
2019-01-23T11:36:00.948Z,66.03
2019-01-23T11:38:29.504Z,81.00
2019-01-23T11:40:59.470Z,92.30
2019-01-23T11:43:27.742Z,83.97
2019-01-23T11:45:56.025Z,97.40
2019-01-23T11:48:24.868Z,103.63
2019-01-23T11:50:53.142Z,102.27
2019-01-23T11:53:21.436Z,102.60
2019-01-23T11:55:51.377Z,118.97
2019-01-23T11:58:19.738Z,122.40
2019-01-23T12:00:48.082Z,116.63
2019-01-23T12:03:20.860Z,113.67
2019-01-23T12:05:46.514Z,103.43
2019-01-23T12:20:55.036Z,97.97
2019-01-23T12:23:23.352Z,93.13
2019-01-23T12:25:51.626Z,85.27
2019-01-23T12:28:19.918Z,92.50
2019-01-23T12:33:38.180Z,96.17
2019-01-23T12:36:06.510Z,101.80
2019-01-23T12:38:34.815Z,97.67
2019-01-23T12:41:03.091Z,98.53
2019-01-23T12:43:31.402Z,94.27
2019-01-23T12:45:59.767Z,91.13
2019-01-23T12:48:28.037Z,85.63
2019-01-23T12:50:56.479Z,78.10
2019-01-23T12:53:24.769Z,79.57
2019-01-23T12:55:53.048Z,84.33
2019-01-23T13:01:08.649Z,92.07
2019-01-23T13:03:38.644Z,90.20
2019-01-23T13:06:06.930Z,89.30
2019-01-23T13:08:35.208Z,99.80
2019-01-23T13:11:04.293Z,84.60
2019-01-23T13:13:32.579Z,110.13
2019-01-23T13:16:00.868Z,96.77
2019-01-23T13:18:29.183Z,93.43
2019-01-23T13:20:57.474Z,108.23
2019-01-23T13:23:25.761Z,85.63
2019-01-23T13:25:54.082Z,100.23
2019-01-23T13:28:22.373Z,92.10
2019-01-23T13:30:50.726Z,96.77
2019-01-23T13:33:20.683Z,99.63
2019-01-23T13:35:48.967Z,87.00
2019-01-23T13:38:17.250Z,80.87
2019-01-23T13:40:46.483Z,84.63
2019-01-23T13:43:14.757Z,94.03
2019-01-23T13:45:45.208Z,98.20
2019-01-23T13:48:13.619Z,105.57
2019-01-23T13:50:41.922Z,132.60
2019-01-23T13:53:10.224Z,153.97
2019-01-23T13:55:40.160Z,120.33
2019-01-23T13:58:08.484Z,80.90
2019-01-23T14:00:40.228Z,98.33
2019-01-23T14:18:21.535Z,98.67
2019-01-23T14:20:49.815Z,107.47
2019-01-23T14:23:18.122Z,109.10
2019-01-23T14:25:48.473Z,109.93
2019-01-23T14:28:16.902Z,111.50
2019-01-23T14:30:45.191Z,107.53
2019-01-23T14:33:15.158Z,116.17
2019-01-23T14:35:43.446Z,117.80
2019-01-23T14:38:11.903Z,129.87
2019-01-23T14:50:51.883Z,96.30
2019-01-23T14:53:20.335Z,83.87
2019-01-23T14:55:48.637Z,87.67
2019-01-23T14:58:17.064Z,82.40
2019-01-23T15:06:05.497Z,96.23
2019-01-23T15:08:33.776Z,97.03
2019-01-23T15:11:02.072Z,98.43
2019-01-23T15:18:51.203Z,101.07
2019-01-23T15:21:19.488Z,112.17
2019-01-23T15:23:47.775Z,126.27
2019-01-23T15:26:16.091Z,100.87
2019-01-23T15:28:47.639Z,83.90
2019-01-23T15:31:15.963Z,93.17
2019-01-23T15:33:45.904Z,87.93
2019-01-23T15:36:15.803Z,104.07
2019-01-23T15:38:45.848Z,80.17
2019-01-23T15:41:15.795Z,69.87
2019-01-23T15:43:44.088Z,101.73
2019-01-23T15:46:12.391Z,86.40
2019-01-23T15:51:22.124Z,70.00
2019-01-23T15:53:50.436Z,66.17
2019-01-23T15:56:18.741Z,73.93
2019-01-23T15:58:47.093Z,76.90
2019-01-23T16:09:04.738Z,72.83
2019-01-23T16:11:35.511Z,75.20
2019-01-23T16:16:51.096Z,66.57
2019-01-23T16:19:19.420Z,58.37
2019-01-23T16:21:47.729Z,56.97
2019-01-23T16:24:16.011Z,63.67
2019-01-23T16:26:45.958Z,74.83
2019-01-23T16:29:14.392Z,77.47
2019-01-23T16:31:42.672Z,64.63
2019-01-23T16:34:11.057Z,62.67
2019-01-23T16:36:39.374Z,63.70
2019-01-23T16:39:08.122Z,75.87
2019-01-23T16:51:36.558Z,66.73
2019-01-23T16:54:04.830Z,58.60
2019-01-23T16:56:33.211Z,72.00
2019-01-23T16:59:01.489Z,65.17
2019-01-23T17:01:29.915Z,58.43
2019-01-23T17:03:58.223Z,68.13
2019-01-23T17:06:26.524Z,68.83
2019-01-23T17:08:54.796Z,61.50
2019-01-23T17:11:23.125Z,61.77
2019-01-23T17:13:51.412Z,62.33
2019-01-23T17:16:19.771Z,65.13
2019-01-23T17:18:49.939Z,66.33
2019-01-23T17:21:18.217Z,62.07
2019-01-23T17:23:49.768Z,57.93
2019-01-23T17:26:20.037Z,58.57
2019-01-23T17:28:48.510Z,59.70
2019-01-23T17:31:21.573Z,60.40
2019-01-23T17:33:51.900Z,55.53
2019-01-23T17:36:21.885Z,60.27
2019-01-23T17:38:51.842Z,59.23
2019-01-23T17:44:09.452Z,83.47
2019-01-23T17:54:22.747Z,82.90
2019-01-23T17:56:52.111Z,73.23
2019-01-23T17:59:20.486Z,76.43
2019-01-23T18:04:40.165Z,77.40
2019-01-23T18:07:14.451Z,78.93
2019-01-23T18:09:42.748Z,82.70
2019-01-23T18:12:12.831Z,83.00
2019-01-23T18:14:41.869Z,87.10
2019-01-23T18:17:11.293Z,80.57
2019-01-23T18:19:39.655Z,83.90
2019-01-23T18:22:09.762Z,71.83
2019-01-23T18:24:39.774Z,75.53
2019-01-23T18:27:09.766Z,75.27
2019-01-23T18:29:39.732Z,69.67
2019-01-23T18:32:09.747Z,80.47
2019-01-23T18:34:50.148Z,78.83
2019-01-23T18:37:24.375Z,70.23
2019-01-23T18:40:05.242Z,84.83
2019-01-23T18:42:36.845Z,67.00
2019-01-23T18:45:12.898Z,70.23
2019-01-23T18:47:55.784Z,77.37
2019-01-23T18:50:41.694Z,70.07
2019-01-23T18:53:10.558Z,74.47
2019-01-23T18:55:39.195Z,51.30
2019-01-23T18:58:07.749Z,60.60
2019-01-23T19:00:36.100Z,55.40
2019-01-23T19:03:07.658Z,54.80
2019-01-23T19:05:37.593Z,53.73
2019-01-23T19:08:07.530Z,58.00
2019-01-23T19:10:37.500Z,51.93
2019-01-23T19:13:05.951Z,57.20
2019-01-23T19:15:34.488Z,58.00
2019-01-23T19:18:02.769Z,49.50
2019-01-23T19:23:18.449Z,66.70
2019-01-23T19:25:48.401Z,61.27
2019-01-23T19:28:18.319Z,72.67
2019-01-23T19:30:46.633Z,67.70
2019-01-23T19:33:16.588Z,63.70
2019-01-23T19:35:46.519Z,64.00
2019-01-23T19:38:16.438Z,62.53
2019-01-23T19:40:46.687Z,61.53
2019-01-23T19:43:16.672Z,61.43
2019-01-23T19:45:46.578Z,65.93
2019-01-23T19:48:19.145Z,69.97
2019-01-23T19:50:47.749Z,68.83
2019-01-23T19:53:16.362Z,71.57
2019-01-23T19:55:44.690Z,64.53
2019-01-23T19:58:12.963Z,63.17
2019-01-23T20:00:43.052Z,63.17
2019-01-23T20:03:20.147Z,68.00
2019-01-23T20:05:43.494Z,70.97
2019-01-23T20:08:11.835Z,72.00
2019-01-23T20:18:44.960Z,66.57
2019-01-23T20:21:13.591Z,59.67
2019-01-23T20:23:42.044Z,67.20
2019-01-23T20:26:10.363Z,62.47
2019-01-23T20:28:39.114Z,62.50
2019-01-23T20:31:07.411Z,68.27
2019-01-23T20:33:35.869Z,66.40
2019-01-23T20:38:51.580Z,57.10
2019-01-23T20:41:21.544Z,61.17
2019-01-23T20:43:49.817Z,60.97
2019-01-23T20:46:18.099Z,66.93
2019-01-23T20:48:49.351Z,63.63
2019-01-23T20:51:17.812Z,63.97
2019-01-23T20:53:46.166Z,68.07
2019-01-23T20:56:14.495Z,60.97
2019-01-23T20:58:42.779Z,56.87
2019-01-23T21:01:11.066Z,56.73
2019-01-23T21:03:39.655Z,60.33
2019-01-23T21:06:07.932Z,52.87
2019-01-23T21:08:36.215Z,61.07
2019-01-23T21:11:06.607Z,66.40
2019-01-23T21:13:36.550Z,57.57
2019-01-23T21:16:04.894Z,55.43
2019-01-23T21:18:33.246Z,62.23
2019-01-23T21:21:01.542Z,55.63
2019-01-23T21:23:31.459Z,54.53
2019-01-23T21:26:02.186Z,58.27
2019-01-23T21:28:33.092Z,55.33
2019-01-23T21:31:01.508Z,58.37
2019-01-23T21:33:31.597Z,55.10
2019-01-23T21:36:00.017Z,58.23
2019-01-23T21:38:28.401Z,50.90
2019-01-23T21:40:56.735Z,56.90
2019-01-23T21:43:25.006Z,54.27
2019-01-23T21:45:53.371Z,59.47
2019-01-23T21:48:24.437Z,55.30
2019-01-23T21:50:52.718Z,57.60
2019-01-23T21:53:20.988Z,49.60
2019-01-23T21:55:49.332Z,57.50
2019-01-23T21:58:17.623Z,55.47
2019-01-23T22:00:46.069Z,56.40
2019-01-23T22:03:14.454Z,65.50
2019-01-23T22:05:44.389Z,52.10
2019-01-23T22:08:15.995Z,60.33
2019-01-23T22:10:45.939Z,60.77
2019-01-23T22:13:14.232Z,53.03
2019-01-23T22:15:42.588Z,51.60
2019-01-23T22:18:10.941Z,55.30
2019-01-23T22:20:40.529Z,54.10
2019-01-23T22:23:08.971Z,58.93
2019-01-23T22:30:54.753Z,50.00
2019-01-23T22:33:24.702Z,52.70
2019-01-23T22:35:54.716Z,54.67
2019-01-23T22:38:24.776Z,56.97
2019-01-23T22:40:53.050Z,55.03
2019-01-23T22:43:21.336Z,49.57
2019-01-23T22:45:49.837Z,55.20
2019-01-23T22:48:18.219Z,60.17
2019-01-23T22:50:46.562Z,53.83
2019-01-23T22:53:14.958Z,56.43
2019-01-23T22:55:43.268Z,47.37
2019-01-23T22:58:11.559Z,53.90
2019-01-23T23:00:47.213Z,58.23
2019-01-23T23:03:16.034Z,51.83
2019-01-23T23:05:44.414Z,47.87
2019-01-23T23:08:14.357Z,46.87
2019-01-23T23:10:42.646Z,50.20
2019-01-23T23:13:11.016Z,52.23
2019-01-23T23:15:39.388Z,45.50
2019-01-23T23:18:07.679Z,44.73
2019-01-23T23:20:35.988Z,47.80
2019-01-23T23:25:36.047Z,47.17
2019-01-23T23:30:51.991Z,41.60
2019-01-23T23:33:20.440Z,47.17
2019-01-23T23:35:48.706Z,47.63
2019-01-23T23:38:17.018Z,43.87
2019-01-23T23:40:45.296Z,43.27
2019-01-23T23:43:13.577Z,49.00
2019-01-23T23:45:41.878Z,45.40
2019-01-23T23:48:10.152Z,44.27
2019-01-23T23:50:38.431Z,44.57
2019-01-23T23:53:08.383Z,43.37
2019-01-23T23:55:36.986Z,43.67
2019-01-23T23:58:05.395Z,42.80
